Terminal Aerodrome Forecast
Issued by NWS

Home | Current Version | Previous Version | Text Only | Print | Product List | Glossary On
Versions: 1 2 3 4 5 6 7 8 9 10 11 12 13 14 15 16 17 18 19 20 21
000
FTUS46 KMFR 171740
TAFRBG
TAF
KRBG 171740Z 1718/1818 17006KT P6SM -SHRA SCT050 OVC080
     FM172200 16008KT P6SM -RA SCT035 OVC060 WS020/19030KT
     FM180300 17012G17KT 5SM RA BR SCT020 BKN035 OVC050=

USA.gov is the U.S. government's official web portal to all federal, state and local government web resources and services.